createdAt,value
2019-03-26T00:02:08.209Z,6.00
2019-03-26T00:06:14.468Z,4.15
2019-03-26T00:10:20.645Z,4.62
2019-03-26T00:14:26.892Z,5.17
2019-03-26T00:18:35.067Z,5.30
2019-03-26T00:22:41.429Z,4.83
2019-03-26T00:26:47.664Z,4.08
2019-03-26T00:30:53.919Z,6.12
2019-03-26T00:35:00.438Z,4.72
2019-03-26T00:39:07.941Z,5.15
2019-03-26T00:43:14.129Z,5.50
2019-03-26T00:47:20.439Z,3.70
2019-03-26T00:51:27.154Z,3.20
2019-03-26T00:55:33.400Z,4.33
2019-03-26T00:59:39.617Z,3.92
2019-03-26T01:03:45.811Z,3.08
2019-03-26T01:07:52.034Z,4.90
2019-03-26T01:11:59.652Z,5.55
2019-03-26T01:16:05.856Z,4.60
2019-03-26T01:20:12.150Z,3.58
2019-03-26T01:24:18.385Z,4.08
2019-03-26T01:28:24.753Z,7.28
2019-03-26T01:32:30.950Z,3.60
2019-03-26T01:36:38.255Z,5.92
2019-03-26T01:40:44.451Z,6.20
2019-03-26T01:44:50.833Z,3.27
2019-03-26T01:48:57.177Z,4.35
2019-03-26T01:53:03.406Z,4.58
2019-03-26T01:57:09.681Z,3.62
2019-03-26T02:01:15.921Z,5.40
2019-03-26T02:05:22.139Z,3.60
2019-03-26T02:09:28.275Z,4.80
2019-03-26T02:13:34.433Z,5.65
2019-03-26T02:17:40.663Z,3.77
2019-03-26T02:21:47.449Z,5.03
2019-03-26T02:25:53.660Z,4.70
2019-03-26T02:30:00.858Z,5.00
2019-03-26T02:34:07.797Z,4.40
2019-03-26T02:38:14.243Z,4.37
2019-03-26T02:42:20.458Z,4.58
2019-03-26T02:46:26.723Z,4.55
2019-03-26T02:50:32.964Z,6.75
2019-03-26T02:54:39.279Z,7.37
2019-03-26T02:58:45.493Z,6.12
2019-03-26T03:02:52.875Z,4.90
2019-03-26T03:06:59.019Z,6.60
2019-03-26T03:11:05.193Z,4.83
2019-03-26T03:15:11.438Z,6.28
2019-03-26T03:19:18.113Z,6.67
2019-03-26T03:23:24.434Z,7.47
2019-03-26T03:27:30.807Z,5.62
2019-03-26T03:31:37.782Z,6.75
2019-03-26T03:35:51.953Z,8.23
2019-03-26T03:39:51.797Z,5.28
2019-03-26T03:43:57.971Z,6.25
2019-03-26T03:48:04.340Z,4.95
2019-03-26T03:52:10.557Z,6.00
2019-03-26T03:56:16.904Z,5.22
2019-03-26T04:00:41.675Z,6.62
2019-03-26T04:04:47.937Z,6.03
2019-03-26T04:08:54.090Z,8.23
2019-03-26T04:13:00.278Z,7.78
2019-03-26T04:17:06.664Z,6.65
2019-03-26T04:21:12.809Z,5.12
2019-03-26T04:25:21.394Z,6.08
2019-03-26T04:29:27.789Z,7.53
2019-03-26T04:33:34.293Z,8.18
2019-03-26T04:37:40.519Z,7.10
2019-03-26T04:41:46.716Z,5.55
2019-03-26T04:45:53.086Z,6.97
2019-03-26T04:49:59.295Z,5.42
2019-03-26T04:54:05.511Z,8.43
2019-03-26T04:58:11.757Z,5.28
2019-03-26T05:02:17.970Z,6.65
2019-03-26T05:06:37.214Z,9.88
2019-03-26T05:10:31.968Z,6.87
2019-03-26T05:14:40.709Z,6.33
2019-03-26T05:18:46.916Z,10.13
2019-03-26T05:22:53.699Z,10.23
2019-03-26T05:27:01.105Z,7.37
2019-03-26T05:31:07.513Z,8.10
2019-03-26T05:35:13.687Z,8.10
2019-03-26T05:39:19.918Z,12.18
2019-03-26T05:43:26.154Z,12.28
2019-03-26T05:47:32.333Z,13.78
2019-03-26T05:51:38.626Z,8.65
2019-03-26T05:55:44.884Z,12.95
2019-03-26T05:59:51.291Z,9.60
2019-03-26T06:03:57.455Z,13.32
2019-03-26T06:08:03.683Z,13.95
2019-03-26T06:12:09.873Z,9.55
2019-03-26T06:16:16.081Z,12.07
2019-03-26T06:20:22.325Z,11.85
2019-03-26T06:24:28.549Z,12.50
2019-03-26T06:28:34.749Z,14.18
2019-03-26T06:32:40.896Z,12.60
2019-03-26T06:36:47.072Z,10.20
2019-03-26T06:40:53.219Z,10.70
2019-03-26T06:44:59.396Z,13.28
2019-03-26T06:49:05.531Z,13.48
2019-03-26T06:53:11.861Z,14.13
2019-03-26T06:57:18.002Z,14.83
2019-03-26T07:01:24.331Z,16.30
2019-03-26T07:05:30.519Z,9.70
2019-03-26T07:09:36.872Z,15.58
2019-03-26T07:13:43.026Z,13.35
2019-03-26T07:17:52.167Z,13.53
2019-03-26T07:21:57.202Z,10.90
2019-03-26T07:26:03.418Z,11.80
2019-03-26T07:30:10.389Z,13.32
2019-03-26T07:34:16.577Z,13.65
2019-03-26T07:38:22.908Z,14.45
2019-03-26T07:42:29.052Z,10.63
2019-03-26T07:46:35.230Z,14.05
2019-03-26T07:50:42.429Z,15.43
2019-03-26T07:54:48.641Z,10.00
2019-03-26T07:58:54.883Z,10.40
2019-03-26T08:03:01.054Z,11.18
2019-03-26T08:07:07.213Z,10.68
2019-03-26T08:11:13.382Z,10.80
2019-03-26T08:15:20.323Z,10.08
2019-03-26T08:19:26.849Z,11.48
2019-03-26T08:23:33.066Z,12.30
2019-03-26T08:27:39.334Z,13.00
2019-03-26T08:31:45.584Z,13.53
2019-03-26T08:35:51.757Z,15.80
2019-03-26T08:39:58.962Z,14.75
2019-03-26T08:44:05.641Z,8.40
2019-03-26T08:48:12.037Z,14.55
2019-03-26T08:52:18.227Z,14.33
2019-03-26T08:56:24.424Z,13.88
2019-03-26T09:00:32.035Z,11.88
2019-03-26T09:04:38.591Z,8.43
2019-03-26T09:08:44.732Z,11.75
2019-03-26T09:12:50.850Z,8.83
2019-03-26T09:16:57.079Z,8.23
2019-03-26T09:21:03.748Z,9.35
2019-03-26T09:25:10.964Z,8.68
2019-03-26T09:29:17.150Z,9.40
2019-03-26T09:33:23.411Z,7.20
2019-03-26T09:37:29.552Z,8.73
2019-03-26T09:41:35.765Z,6.35
2019-03-26T09:45:41.904Z,11.53
2019-03-26T09:49:48.047Z,10.13
2019-03-26T09:53:54.254Z,6.25
2019-03-26T09:58:00.468Z,7.47
2019-03-26T10:02:06.564Z,8.35
2019-03-26T10:06:22.810Z,9.75
2019-03-26T10:10:20.555Z,6.08
2019-03-26T10:14:28.417Z,5.87
2019-03-26T10:18:34.534Z,8.30
2019-03-26T10:22:41.250Z,8.63
2019-03-26T10:27:34.965Z,8.03
2019-03-26T10:31:40.836Z,4.67
2019-03-26T10:35:47.172Z,9.68
2019-03-26T10:39:53.453Z,8.95
2019-03-26T10:44:02.512Z,9.88
2019-03-26T10:48:08.845Z,8.75
2019-03-26T10:52:15.299Z,10.98
2019-03-26T10:56:21.572Z,9.80
2019-03-26T11:00:27.989Z,8.05
2019-03-26T11:04:34.152Z,7.85
2019-03-26T11:08:41.571Z,8.93
2019-03-26T11:12:47.811Z,8.45
2019-03-26T11:16:53.964Z,5.67
2019-03-26T11:21:03.057Z,9.35
2019-03-26T11:25:12.046Z,10.55
2019-03-26T11:29:17.298Z,8.90
2019-03-26T11:33:23.502Z,5.37
2019-03-26T11:37:29.755Z,7.53
2019-03-26T11:41:35.972Z,7.83
2019-03-26T11:45:46.115Z,4.97
2019-03-26T11:49:52.332Z,7.00
2019-03-26T11:59:05.688Z,5.87
2019-03-26T12:03:12.366Z,6.90
2019-03-26T12:08:29.632Z,6.67
2019-03-26T12:12:36.250Z,5.20
2019-03-26T12:16:42.584Z,6.17
2019-03-26T12:20:48.813Z,6.12
2019-03-26T12:24:55.028Z,6.78
2019-03-26T12:29:01.602Z,6.92
2019-03-26T12:33:09.846Z,8.83
2019-03-26T12:37:16.186Z,8.35
2019-03-26T12:41:22.411Z,5.08
2019-03-26T12:45:28.577Z,5.58
2019-03-26T12:49:36.341Z,4.72
2019-03-26T12:53:42.761Z,6.10
2019-03-26T12:57:50.983Z,5.53
2019-03-26T13:01:57.592Z,5.85
2019-03-26T13:06:03.857Z,4.17
2019-03-26T13:10:13.986Z,4.55
2019-03-26T13:14:18.034Z,4.17
2019-03-26T13:18:24.959Z,3.12
2019-03-26T13:22:31.464Z,3.10
2019-03-26T13:26:38.318Z,4.05
2019-03-26T13:30:48.586Z,5.25
2019-03-26T13:39:36.135Z,4.60
2019-03-26T13:48:16.766Z,3.58
2019-03-26T13:52:23.071Z,5.25
2019-03-26T13:56:29.301Z,4.80
2019-03-26T14:00:38.474Z,3.15
2019-03-26T14:04:44.728Z,3.37
2019-03-26T14:08:51.978Z,6.55
2019-03-26T14:12:58.242Z,3.87
2019-03-26T14:17:05.704Z,3.65
2019-03-26T14:21:12.222Z,4.10
2019-03-26T14:25:18.421Z,6.08
2019-03-26T14:29:26.256Z,6.20
2019-03-26T14:33:33.293Z,7.72
2019-03-26T14:37:50.688Z,5.83
2019-03-26T14:41:47.391Z,5.78
2019-03-26T14:45:53.613Z,4.12
2019-03-26T14:50:00.375Z,7.42
2019-03-26T14:54:07.854Z,5.47
2019-03-26T14:58:14.237Z,2.92
2019-03-26T15:02:20.497Z,6.05
2019-03-26T15:06:26.836Z,3.52
2019-03-26T15:10:32.973Z,3.75
2019-03-26T15:14:40.565Z,4.30
2019-03-26T15:18:46.853Z,6.75
2019-03-26T15:22:53.238Z,5.62
2019-03-26T15:26:59.477Z,4.70
2019-03-26T15:31:08.841Z,5.65
2019-03-26T15:35:15.518Z,7.87
2019-03-26T15:39:21.789Z,4.72
2019-03-26T15:43:28.132Z,5.78
2019-03-26T15:47:34.458Z,7.53
2019-03-26T15:51:42.629Z,5.65
2019-03-26T15:55:51.583Z,4.25
2019-03-26T15:59:58.225Z,4.92
2019-03-26T16:04:04.534Z,5.60
2019-03-26T16:08:12.515Z,4.45
2019-03-26T16:12:18.869Z,5.95
2019-03-26T16:16:25.568Z,6.12
2019-03-26T16:20:31.988Z,5.47
2019-03-26T16:24:38.422Z,4.17
2019-03-26T16:28:44.854Z,6.37
2019-03-26T16:32:51.160Z,7.87
2019-03-26T16:36:59.782Z,5.47
2019-03-26T16:41:06.097Z,5.33
2019-03-26T16:45:12.424Z,6.28
2019-03-26T16:49:18.793Z,5.05
2019-03-26T16:53:27.793Z,6.83
2019-03-26T16:57:35.905Z,4.22
2019-03-26T17:01:42.263Z,4.97
2019-03-26T17:05:48.782Z,5.50
2019-03-26T17:09:55.019Z,8.58
2019-03-26T17:14:01.390Z,4.03
2019-03-26T17:18:07.679Z,7.45
2019-03-26T17:22:13.989Z,3.92
2019-03-26T17:26:20.199Z,5.65
2019-03-26T17:30:26.712Z,4.08
2019-03-26T17:34:33.001Z,4.60
2019-03-26T17:38:39.285Z,8.50
2019-03-26T17:42:46.032Z,5.17
2019-03-26T17:46:53.851Z,3.42
2019-03-26T17:51:02.811Z,5.45
2019-03-26T17:55:10.951Z,5.05
2019-03-26T17:59:17.798Z,5.22
2019-03-26T18:03:26.623Z,4.50
2019-03-26T18:07:42.988Z,4.08
2019-03-26T18:11:50.909Z,6.90
2019-03-26T18:15:57.191Z,6.25
2019-03-26T18:20:05.214Z,6.85
2019-03-26T18:24:13.342Z,7.00
2019-03-26T18:28:19.813Z,4.75
2019-03-26T18:32:28.015Z,6.62
2019-03-26T18:36:35.058Z,4.10
2019-03-26T18:40:41.499Z,4.72
2019-03-26T18:44:48.015Z,6.53
2019-03-26T18:48:55.878Z,4.30
2019-03-26T18:53:03.293Z,4.72
2019-03-26T18:57:09.773Z,5.70
2019-03-26T19:01:16.850Z,5.40
2019-03-26T19:05:23.236Z,5.05
2019-03-26T19:09:29.972Z,5.62
2019-03-26T19:13:36.571Z,8.08
2019-03-26T19:17:42.982Z,5.28
2019-03-26T19:21:49.429Z,6.10
2019-03-26T19:25:55.842Z,5.62
2019-03-26T19:30:04.846Z,6.67
2019-03-26T19:34:13.431Z,4.45
2019-03-26T19:38:20.321Z,6.40
2019-03-26T19:42:27.797Z,6.75
2019-03-26T19:46:37.454Z,5.30
2019-03-26T19:50:43.846Z,4.90
2019-03-26T19:54:50.456Z,5.62
2019-03-26T19:58:56.901Z,7.33
2019-03-26T20:03:03.336Z,4.67
2019-03-26T20:07:09.810Z,5.12
2019-03-26T20:11:16.510Z,6.72
2019-03-26T20:15:24.387Z,5.10
2019-03-26T20:19:32.269Z,5.83
2019-03-26T20:23:39.137Z,5.30
2019-03-26T20:27:48.656Z,4.97
2019-03-26T20:31:57.874Z,4.53
2019-03-26T20:36:04.421Z,4.95
2019-03-26T20:40:12.942Z,4.42
2019-03-26T20:44:19.485Z,3.60
2019-03-26T20:48:25.853Z,5.70
2019-03-26T20:52:32.788Z,4.95
2019-03-26T20:56:40.895Z,4.95
2019-03-26T21:00:47.559Z,7.78
2019-03-26T21:04:55.151Z,5.65
2019-03-26T21:09:03.259Z,6.53
2019-03-26T21:13:11.394Z,7.28
2019-03-26T21:17:18.019Z,5.30
2019-03-26T21:21:24.367Z,5.03
2019-03-26T21:25:30.723Z,9.48
2019-03-26T21:29:38.650Z,6.37
2019-03-26T21:33:45.461Z,7.05
2019-03-26T21:37:51.812Z,5.35
2019-03-26T21:41:58.727Z,8.80
2019-03-26T21:46:05.123Z,4.10
2019-03-26T21:50:13.040Z,6.22
2019-03-26T21:54:20.980Z,5.25
2019-03-26T21:58:27.361Z,5.47
2019-03-26T22:02:33.722Z,6.80
2019-03-26T22:06:42.251Z,7.33
2019-03-26T22:10:48.583Z,7.08
2019-03-26T22:14:56.474Z,8.58
2019-03-26T22:19:04.427Z,6.30
2019-03-26T22:23:10.907Z,7.25
2019-03-26T22:27:17.781Z,6.40
2019-03-26T22:31:24.214Z,5.78
2019-03-26T22:35:31.598Z,7.95
2019-03-26T22:39:38.065Z,4.75
2019-03-26T22:43:44.381Z,4.55
2019-03-26T22:47:53.203Z,10.03
2019-03-26T22:52:02.453Z,6.80
2019-03-26T22:56:08.786Z,5.45
2019-03-26T23:00:18.357Z,5.72
2019-03-26T23:04:27.519Z,8.88
2019-03-26T23:08:34.351Z,5.83
2019-03-26T23:12:42.647Z,7.37
2019-03-26T23:16:49.044Z,6.10
2019-03-26T23:20:55.418Z,7.97
2019-03-26T23:25:01.842Z,6.95
2019-03-26T23:29:28.228Z,6.75
2019-03-26T23:33:37.936Z,7.40
2019-03-26T23:38:05.667Z,8.80
2019-03-26T23:42:48.716Z,7.28
2019-03-26T23:46:55.606Z,12.07
2019-03-26T23:51:01.909Z,6.70
2019-03-26T23:55:10.086Z,7.22
2019-03-26T23:59:16.357Z,4.83
